Hauptseite
METAR-TAF:

METAR-TAF

Flughäfen :

Flugplatz St. Gallen-Altenrhein

St. Gallen, Schweiz

Breite: 47-29-06N, Länge: 009-33-43E, Höhe: 398 m

Beobachtung

Neuester Wetterbericht von vor 38 Minuten, um 18:50 UTC
Wind 4 kt aus Nord, variierte zwischen West/Nordwest und Ost/Nordost
Temperatur 21°C
Luftfeuchtigkeit 60%
Luftdruck 1018 hPa
Sichtweite 10 km oder mehr

METAR: LSZR 051850Z AUTO 36004KT 300V060 9999 NCD 21/13 Q1018

Zeit: 21:28 (19:28 UTC)

Prognose

Neuester Wetterbericht von vor 5 Stunden und 3 Minuten, um 14:25 UTC
Gültige Prognose vom 05 um 15 UTC bis 05 um 24 UTC
Wind 7 kt aus Nord/Nordost
Sichtweite 10 km oder mehr
keine Wolken unter 1500 m und keine Kumulonimbus oder Gewitterwolken

TAF: LSZR 051425Z 0515/0524 03007KT CAVOK

Wetterbeobachtungen und Prognosen von mehr als 4000 Flughäfen (METAR und TAF Bericht).

Die verfügbaren Stationen werden durch gelbe und rote Markierungen auf der Karte dargestellt.

Führen Sie die Maus auf sie, um den Namen der Station zu sehen.

Darauf klicken, um die Beobachtung von Wetterbeobachtungen und Prognosen zu sehen.

Um die Karte zu ändern : klicken Sie auf den grünen Tasten mit einem schwarzen Kreuz Zum Vergrößern, auf den grünen Button mit einem Gedankenstrich zu verkleinern, oder auf die grünen Pfeile für benachbarte Karten.


METAR-TAF: